sensor_id;sensor_type;location;lat;lon;timestamp;P1;durP1;ratioP1;P2;durP2;ratioP2
1390;SDS011;690;51.454;7.194;2023-06-10T00:01:37;9.70;;;8.83;;
1390;SDS011;690;51.454;7.194;2023-06-10T00:04:04;10.90;;;9.80;;
1390;SDS011;690;51.454;7.194;2023-06-10T00:06:31;10.27;;;9.37;;
1390;SDS011;690;51.454;7.194;2023-06-10T00:09:00;13.43;;;12.03;;
1390;SDS011;690;51.454;7.194;2023-06-10T00:11:29;12.33;;;11.07;;
1390;SDS011;690;51.454;7.194;2023-06-10T00:13:56;11.07;;;10.00;;
1390;SDS011;690;51.454;7.194;2023-06-10T00:16:23;10.67;;;9.77;;
1390;SDS011;690;51.454;7.194;2023-06-10T00:18:52;10.57;;;9.67;;
1390;SDS011;690;51.454;7.194;2023-06-10T00:21:20;10.43;;;9.30;;
1390;SDS011;690;51.454;7.194;2023-06-10T00:23:49;19.53;;;10.40;;
1390;SDS011;690;51.454;7.194;2023-06-10T00:26:16;10.33;;;9.43;;
1390;SDS011;690;51.454;7.194;2023-06-10T00:28:43;11.23;;;10.07;;
1390;SDS011;690;51.454;7.194;2023-06-10T00:31:11;11.90;;;10.70;;
1390;SDS011;690;51.454;7.194;2023-06-10T00:33:38;11.53;;;10.50;;
1390;SDS011;690;51.454;7.194;2023-06-10T00:36:06;11.20;;;10.10;;
1390;SDS011;690;51.454;7.194;2023-06-10T00:38:33;11.87;;;10.80;;
1390;SDS011;690;51.454;7.194;2023-06-10T00:41:00;11.43;;;10.20;;
1390;SDS011;690;51.454;7.194;2023-06-10T00:43:27;11.67;;;10.57;;
1390;SDS011;690;51.454;7.194;2023-06-10T00:45:53;11.90;;;10.73;;
1390;SDS011;690;51.454;7.194;2023-06-10T00:48:21;12.43;;;11.33;;
1390;SDS011;690;51.454;7.194;2023-06-10T00:50:48;11.57;;;10.47;;
1390;SDS011;690;51.454;7.194;2023-06-10T00:53:16;11.47;;;10.20;;
1390;SDS011;690;51.454;7.194;2023-06-10T00:55:44;11.40;;;10.40;;
1390;SDS011;690;51.454;7.194;2023-06-10T00:58:11;12.60;;;11.50;;
1390;SDS011;690;51.454;7.194;2023-06-10T01:00:38;14.93;;;13.43;;
1390;SDS011;690;51.454;7.194;2023-06-10T01:03:05;12.47;;;11.27;;
1390;SDS011;690;51.454;7.194;2023-06-10T01:05:33;12.20;;;10.63;;
1390;SDS011;690;51.454;7.194;2023-06-10T01:08:03;11.73;;;10.73;;
1390;SDS011;690;51.454;7.194;2023-06-10T01:10:40;12.47;;;11.17;;
1390;SDS011;690;51.454;7.194;2023-06-10T01:13:13;12.00;;;10.70;;
1390;SDS011;690;51.454;7.194;2023-06-10T01:15:43;12.83;;;11.37;;
1390;SDS011;690;51.454;7.194;2023-06-10T01:18:10;12.73;;;11.53;;
1390;SDS011;690;51.454;7.194;2023-06-10T01:20:40;13.40;;;12.20;;
1390;SDS011;690;51.454;7.194;2023-06-10T01:23:10;12.97;;;11.67;;
1390;SDS011;690;51.454;7.194;2023-06-10T01:25:37;13.90;;;12.63;;
1390;SDS011;690;51.454;7.194;2023-06-10T01:28:07;15.47;;;11.83;;
1390;SDS011;690;51.454;7.194;2023-06-10T01:30:41;13.83;;;12.43;;
1390;SDS011;690;51.454;7.194;2023-06-10T01:33:15;15.30;;;13.77;;
1390;SDS011;690;51.454;7.194;2023-06-10T01:35:48;13.97;;;12.67;;
1390;SDS011;690;51.454;7.194;2023-06-10T01:38:19;15.77;;;14.17;;
1390;SDS011;690;51.454;7.194;2023-06-10T01:40:48;15.67;;;14.23;;
1390;SDS011;690;51.454;7.194;2023-06-10T01:43:15;16.53;;;14.93;;
1390;SDS011;690;51.454;7.194;2023-06-10T01:45:42;16.10;;;14.50;;
1390;SDS011;690;51.454;7.194;2023-06-10T01:48:09;16.30;;;14.70;;
1390;SDS011;690;51.454;7.194;2023-06-10T01:50:36;16.63;;;15.10;;
1390;SDS011;690;51.454;7.194;2023-06-10T01:53:03;18.00;;;16.23;;
1390;SDS011;690;51.454;7.194;2023-06-10T01:55:31;18.37;;;16.53;;
1390;SDS011;690;51.454;7.194;2023-06-10T01:57:58;17.33;;;15.60;;
1390;SDS011;690;51.454;7.194;2023-06-10T02:00:25;18.13;;;16.43;;
1390;SDS011;690;51.454;7.194;2023-06-10T02:02:52;18.70;;;16.90;;
1390;SDS011;690;51.454;7.194;2023-06-10T02:05:19;18.57;;;16.73;;
1390;SDS011;690;51.454;7.194;2023-06-10T02:07:48;17.63;;;16.13;;
1390;SDS011;690;51.454;7.194;2023-06-10T02:10:15;20.17;;;18.10;;
1390;SDS011;690;51.454;7.194;2023-06-10T02:12:47;19.37;;;17.30;;
1390;SDS011;690;51.454;7.194;2023-06-10T02:15:15;18.13;;;16.53;;
1390;SDS011;690;51.454;7.194;2023-06-10T02:17:51;18.73;;;16.60;;
1390;SDS011;690;51.454;7.194;2023-06-10T02:20:19;18.67;;;16.90;;
1390;SDS011;690;51.454;7.194;2023-06-10T02:22:48;20.10;;;18.10;;
1390;SDS011;690;51.454;7.194;2023-06-10T02:25:15;22.27;;;20.07;;
1390;SDS011;690;51.454;7.194;2023-06-10T02:27:48;19.33;;;17.40;;
1390;SDS011;690;51.454;7.194;2023-06-10T02:30:15;20.43;;;17.87;;
1390;SDS011;690;51.454;7.194;2023-06-10T02:32:41;20.73;;;18.53;;
1390;SDS011;690;51.454;7.194;2023-06-10T02:35:12;20.03;;;17.90;;
1390;SDS011;690;51.454;7.194;2023-06-10T02:37:39;20.00;;;18.17;;
1390;SDS011;690;51.454;7.194;2023-06-10T02:40:07;19.20;;;17.20;;
1390;SDS011;690;51.454;7.194;2023-06-10T02:42:35;20.83;;;18.87;;
1390;SDS011;690;51.454;7.194;2023-06-10T02:45:03;21.47;;;18.90;;
1390;SDS011;690;51.454;7.194;2023-06-10T02:47:31;19.47;;;17.60;;
1390;SDS011;690;51.454;7.194;2023-06-10T02:49:58;22.50;;;17.73;;
1390;SDS011;690;51.454;7.194;2023-06-10T02:52:25;19.20;;;17.30;;
1390;SDS011;690;51.454;7.194;2023-06-10T02:54:52;18.83;;;16.93;;
1390;SDS011;690;51.454;7.194;2023-06-10T02:57:18;21.83;;;17.50;;
1390;SDS011;690;51.454;7.194;2023-06-10T02:59:45;20.03;;;17.30;;
1390;SDS011;690;51.454;7.194;2023-06-10T03:02:14;19.53;;;17.50;;
1390;SDS011;690;51.454;7.194;2023-06-10T03:04:40;19.70;;;17.00;;
1390;SDS011;690;51.454;7.194;2023-06-10T03:07:08;17.37;;;15.77;;
1390;SDS011;690;51.454;7.194;2023-06-10T03:09:36;18.33;;;16.57;;
1390;SDS011;690;51.454;7.194;2023-06-10T03:12:03;16.80;;;15.00;;
1390;SDS011;690;51.454;7.194;2023-06-10T03:14:31;17.73;;;15.07;;
1390;SDS011;690;51.454;7.194;2023-06-10T03:16:59;21.77;;;16.00;;
1390;SDS011;690;51.454;7.194;2023-06-10T03:19:27;18.57;;;16.90;;
1390;SDS011;690;51.454;7.194;2023-06-10T03:21:57;18.20;;;16.37;;
1390;SDS011;690;51.454;7.194;2023-06-10T03:24:33;19.00;;;17.10;;
1390;SDS011;690;51.454;7.194;2023-06-10T03:27:01;20.00;;;18.13;;
1390;SDS011;690;51.454;7.194;2023-06-10T03:29:30;25.67;;;17.30;;
1390;SDS011;690;51.454;7.194;2023-06-10T03:31:57;19.00;;;17.27;;
1390;SDS011;690;51.454;7.194;2023-06-10T03:34:24;19.80;;;17.70;;
1390;SDS011;690;51.454;7.194;2023-06-10T03:36:52;18.57;;;16.77;;
1390;SDS011;690;51.454;7.194;2023-06-10T03:39:19;20.83;;;18.67;;
1390;SDS011;690;51.454;7.194;2023-06-10T03:41:46;20.70;;;17.40;;
1390;SDS011;690;51.454;7.194;2023-06-10T03:44:13;20.20;;;18.17;;
1390;SDS011;690;51.454;7.194;2023-06-10T03:46:40;18.83;;;16.83;;
1390;SDS011;690;51.454;7.194;2023-06-10T03:49:07;20.17;;;18.07;;
1390;SDS011;690;51.454;7.194;2023-06-10T03:51:35;20.40;;;18.20;;
1390;SDS011;690;51.454;7.194;2023-06-10T03:54:03;20.13;;;18.13;;
1390;SDS011;690;51.454;7.194;2023-06-10T03:56:30;20.57;;;18.47;;
1390;SDS011;690;51.454;7.194;2023-06-10T03:58:58;20.93;;;18.60;;
1390;SDS011;690;51.454;7.194;2023-06-10T04:01:25;19.47;;;17.57;;
1390;SDS011;690;51.454;7.194;2023-06-10T04:03:52;21.23;;;18.17;;
1390;SDS011;690;51.454;7.194;2023-06-10T04:06:20;21.80;;;19.50;;
1390;SDS011;690;51.454;7.194;2023-06-10T04:08:50;21.00;;;18.80;;
1390;SDS011;690;51.454;7.194;2023-06-10T04:11:18;19.80;;;17.67;;
1390;SDS011;690;51.454;7.194;2023-06-10T04:13:45;19.63;;;17.80;;
1390;SDS011;690;51.454;7.194;2023-06-10T04:16:12;19.93;;;17.93;;
1390;SDS011;690;51.454;7.194;2023-06-10T04:18:41;18.00;;;16.30;;
1390;SDS011;690;51.454;7.194;2023-06-10T04:21:08;18.47;;;16.50;;
1390;SDS011;690;51.454;7.194;2023-06-10T04:23:35;18.17;;;16.40;;
1390;SDS011;690;51.454;7.194;2023-06-10T04:26:03;18.03;;;16.33;;
1390;SDS011;690;51.454;7.194;2023-06-10T04:28:32;17.80;;;15.63;;
1390;SDS011;690;51.454;7.194;2023-06-10T04:30:59;18.00;;;16.10;;
1390;SDS011;690;51.454;7.194;2023-06-10T04:33:26;16.80;;;15.10;;
1390;SDS011;690;51.454;7.194;2023-06-10T04:35:53;17.07;;;14.33;;
1390;SDS011;690;51.454;7.194;2023-06-10T04:38:20;15.87;;;13.53;;
1390;SDS011;690;51.454;7.194;2023-06-10T04:40:47;16.13;;;13.23;;
1390;SDS011;690;51.454;7.194;2023-06-10T04:43:14;15.70;;;14.07;;
1390;SDS011;690;51.454;7.194;2023-06-10T04:45:42;14.03;;;12.63;;
1390;SDS011;690;51.454;7.194;2023-06-10T04:48:09;17.03;;;12.70;;
1390;SDS011;690;51.454;7.194;2023-06-10T04:50:36;13.57;;;12.27;;
1390;SDS011;690;51.454;7.194;2023-06-10T04:53:04;15.37;;;12.90;;
1390;SDS011;690;51.454;7.194;2023-06-10T04:55:31;14.30;;;11.40;;
1390;SDS011;690;51.454;7.194;2023-06-10T04:57:59;13.47;;;11.03;;
1390;SDS011;690;51.454;7.194;2023-06-10T05:00:26;10.83;;;9.73;;
1390;SDS011;690;51.454;7.194;2023-06-10T05:02:54;12.30;;;9.93;;
1390;SDS011;690;51.454;7.194;2023-06-10T05:05:21;12.10;;;10.83;;
1390;SDS011;690;51.454;7.194;2023-06-10T05:07:48;10.50;;;9.40;;
1390;SDS011;690;51.454;7.194;2023-06-10T05:10:15;12.63;;;10.57;;
1390;SDS011;690;51.454;7.194;2023-06-10T05:12:42;11.13;;;9.10;;
1390;SDS011;690;51.454;7.194;2023-06-10T05:15:10;11.93;;;9.83;;
1390;SDS011;690;51.454;7.194;2023-06-10T05:17:37;10.23;;;9.20;;
1390;SDS011;690;51.454;7.194;2023-06-10T05:20:06;11.00;;;9.30;;
1390;SDS011;690;51.454;7.194;2023-06-10T05:22:33;9.57;;;8.57;;
1390;SDS011;690;51.454;7.194;2023-06-10T05:25:00;11.07;;;9.53;;
1390;SDS011;690;51.454;7.194;2023-06-10T05:27:28;9.90;;;8.40;;
1390;SDS011;690;51.454;7.194;2023-06-10T05:29:54;11.00;;;8.90;;
1390;SDS011;690;51.454;7.194;2023-06-10T05:32:21;12.00;;;9.63;;
1390;SDS011;690;51.454;7.194;2023-06-10T05:34:48;10.23;;;9.20;;
1390;SDS011;690;51.454;7.194;2023-06-10T05:37:17;10.90;;;8.60;;
1390;SDS011;690;51.454;7.194;2023-06-10T05:39:43;9.90;;;8.90;;
1390;SDS011;690;51.454;7.194;2023-06-10T05:42:10;11.37;;;8.83;;
1390;SDS011;690;51.454;7.194;2023-06-10T05:44:37;11.10;;;8.37;;
1390;SDS011;690;51.454;7.194;2023-06-10T05:47:04;9.43;;;8.20;;
1390;SDS011;690;51.454;7.194;2023-06-10T05:49:31;11.40;;;8.50;;
1390;SDS011;690;51.454;7.194;2023-06-10T05:51:58;11.87;;;9.67;;
1390;SDS011;690;51.454;7.194;2023-06-10T05:54:26;9.03;;;7.50;;
1390;SDS011;690;51.454;7.194;2023-06-10T05:56:53;9.97;;;8.07;;
1390;SDS011;690;51.454;7.194;2023-06-10T05:59:20;9.90;;;8.90;;
1390;SDS011;690;51.454;7.194;2023-06-10T06:01:48;9.27;;;8.30;;
1390;SDS011;690;51.454;7.194;2023-06-10T06:04:15;9.17;;;8.00;;
1390;SDS011;690;51.454;7.194;2023-06-10T06:06:42;8.13;;;7.30;;
1390;SDS011;690;51.454;7.194;2023-06-10T06:09:09;10.83;;;8.00;;
1390;SDS011;690;51.454;7.194;2023-06-10T06:11:37;9.17;;;8.07;;
1390;SDS011;690;51.454;7.194;2023-06-10T06:14:04;9.10;;;8.00;;
1390;SDS011;690;51.454;7.194;2023-06-10T06:16:31;10.03;;;7.20;;
1390;SDS011;690;51.454;7.194;2023-06-10T06:18:58;10.20;;;7.90;;
1390;SDS011;690;51.454;7.194;2023-06-10T06:21:25;10.40;;;7.90;;
1390;SDS011;690;51.454;7.194;2023-06-10T06:23:52;10.30;;;7.27;;
1390;SDS011;690;51.454;7.194;2023-06-10T06:26:19;7.57;;;6.43;;
1390;SDS011;690;51.454;7.194;2023-06-10T06:28:47;8.83;;;7.57;;
1390;SDS011;690;51.454;7.194;2023-06-10T06:31:14;7.73;;;7.00;;
1390;SDS011;690;51.454;7.194;2023-06-10T06:33:41;8.70;;;7.80;;
1390;SDS011;690;51.454;7.194;2023-06-10T06:36:08;8.00;;;7.20;;
1390;SDS011;690;51.454;7.194;2023-06-10T06:38:35;8.77;;;7.53;;
1390;SDS011;690;51.454;7.194;2023-06-10T06:41:02;11.30;;;7.10;;
1390;SDS011;690;51.454;7.194;2023-06-10T06:43:31;7.90;;;6.97;;
1390;SDS011;690;51.454;7.194;2023-06-10T06:45:59;9.47;;;7.30;;
1390;SDS011;690;51.454;7.194;2023-06-10T06:48:26;7.20;;;6.10;;
1390;SDS011;690;51.454;7.194;2023-06-10T06:50:53;9.50;;;7.30;;
1390;SDS011;690;51.454;7.194;2023-06-10T06:53:21;10.37;;;7.33;;
1390;SDS011;690;51.454;7.194;2023-06-10T06:55:48;8.50;;;6.67;;
1390;SDS011;690;51.454;7.194;2023-06-10T06:58:15;10.30;;;7.50;;
1390;SDS011;690;51.454;7.194;2023-06-10T07:00:42;8.40;;;6.87;;
1390;SDS011;690;51.454;7.194;2023-06-10T07:03:10;8.30;;;6.90;;
1390;SDS011;690;51.454;7.194;2023-06-10T07:05:37;6.53;;;5.87;;
1390;SDS011;690;51.454;7.194;2023-06-10T07:08:04;7.17;;;6.20;;
1390;SDS011;690;51.454;7.194;2023-06-10T07:10:31;8.00;;;6.23;;
1390;SDS011;690;51.454;7.194;2023-06-10T07:12:58;9.07;;;6.30;;
1390;SDS011;690;51.454;7.194;2023-06-10T07:15:25;6.60;;;6.00;;
1390;SDS011;690;51.454;7.194;2023-06-10T07:17:52;8.90;;;6.60;;
1390;SDS011;690;51.454;7.194;2023-06-10T07:20:21;8.77;;;6.40;;
1390;SDS011;690;51.454;7.194;2023-06-10T07:22:48;10.83;;;6.47;;
1390;SDS011;690;51.454;7.194;2023-06-10T07:25:15;7.33;;;5.90;;
1390;SDS011;690;51.454;7.194;2023-06-10T07:27:42;7.00;;;6.00;;
1390;SDS011;690;51.454;7.194;2023-06-10T07:30:09;6.87;;;5.63;;
1390;SDS011;690;51.454;7.194;2023-06-10T07:32:37;6.50;;;6.00;;
1390;SDS011;690;51.454;7.194;2023-06-10T07:35:06;14.73;;;6.90;;
1390;SDS011;690;51.454;7.194;2023-06-10T07:37:36;7.00;;;5.80;;
1390;SDS011;690;51.454;7.194;2023-06-10T07:40:03;6.27;;;5.63;;
1390;SDS011;690;51.454;7.194;2023-06-10T07:42:31;5.90;;;5.10;;
1390;SDS011;690;51.454;7.194;2023-06-10T07:44:58;8.60;;;6.37;;
1390;SDS011;690;51.454;7.194;2023-06-10T07:47:25;7.97;;;6.10;;
1390;SDS011;690;51.454;7.194;2023-06-10T07:49:51;6.10;;;5.50;;
1390;SDS011;690;51.454;7.194;2023-06-10T07:52:18;7.40;;;5.80;;
1390;SDS011;690;51.454;7.194;2023-06-10T07:54:47;7.43;;;5.83;;
1390;SDS011;690;51.454;7.194;2023-06-10T07:57:14;6.73;;;5.53;;
1390;SDS011;690;51.454;7.194;2023-06-10T07:59:41;6.37;;;5.30;;
1390;SDS011;690;51.454;7.194;2023-06-10T08:02:10;8.20;;;5.53;;
1390;SDS011;690;51.454;7.194;2023-06-10T08:04:37;8.73;;;5.40;;
1390;SDS011;690;51.454;7.194;2023-06-10T08:07:04;7.60;;;5.30;;
1390;SDS011;690;51.454;7.194;2023-06-10T08:09:31;6.77;;;6.13;;
1390;SDS011;690;51.454;7.194;2023-06-10T08:11:59;8.97;;;6.03;;
1390;SDS011;690;51.454;7.194;2023-06-10T08:14:26;6.30;;;5.40;;
1390;SDS011;690;51.454;7.194;2023-06-10T08:16:53;8.67;;;6.10;;
1390;SDS011;690;51.454;7.194;2023-06-10T08:19:20;6.00;;;5.40;;
1390;SDS011;690;51.454;7.194;2023-06-10T08:21:47;6.70;;;5.43;;
1390;SDS011;690;51.454;7.194;2023-06-10T08:24:14;8.43;;;5.90;;
1390;SDS011;690;51.454;7.194;2023-06-10T08:26:42;8.93;;;5.90;;
1390;SDS011;690;51.454;7.194;2023-06-10T08:29:12;6.87;;;5.90;;
1390;SDS011;690;51.454;7.194;2023-06-10T08:31:41;10.20;;;5.67;;
1390;SDS011;690;51.454;7.194;2023-06-10T08:34:08;7.97;;;5.73;;
1390;SDS011;690;51.454;7.194;2023-06-10T08:36:35;9.30;;;5.70;;
1390;SDS011;690;51.454;7.194;2023-06-10T08:39:02;7.40;;;5.70;;
1390;SDS011;690;51.454;7.194;2023-06-10T08:41:30;6.43;;;5.83;;
1390;SDS011;690;51.454;7.194;2023-06-10T08:44:03;6.37;;;5.53;;
1390;SDS011;690;51.454;7.194;2023-06-10T08:46:35;7.50;;;5.87;;
1390;SDS011;690;51.454;7.194;2023-06-10T08:49:03;6.47;;;5.60;;
1390;SDS011;690;51.454;7.194;2023-06-10T08:51:32;6.50;;;5.97;;
1390;SDS011;690;51.454;7.194;2023-06-10T08:54:02;9.47;;;6.67;;
1390;SDS011;690;51.454;7.194;2023-06-10T08:56:34;8.93;;;6.57;;
1390;SDS011;690;51.454;7.194;2023-06-10T08:59:05;7.00;;;5.60;;
1390;SDS011;690;51.454;7.194;2023-06-10T09:01:33;7.93;;;5.73;;
1390;SDS011;690;51.454;7.194;2023-06-10T09:04:02;8.30;;;6.00;;
1390;SDS011;690;51.454;7.194;2023-06-10T09:06:29;7.83;;;6.07;;
1390;SDS011;690;51.454;7.194;2023-06-10T09:08:58;7.73;;;6.47;;
1390;SDS011;690;51.454;7.194;2023-06-10T09:11:25;12.13;;;6.13;;
1390;SDS011;690;51.454;7.194;2023-06-10T09:13:52;6.37;;;5.70;;
1390;SDS011;690;51.454;7.194;2023-06-10T09:16:19;8.30;;;7.40;;
1390;SDS011;690;51.454;7.194;2023-06-10T09:18:46;8.40;;;6.47;;
1390;SDS011;690;51.454;7.194;2023-06-10T09:21:21;8.33;;;6.30;;
1390;SDS011;690;51.454;7.194;2023-06-10T09:23:48;7.20;;;5.50;;
1390;SDS011;690;51.454;7.194;2023-06-10T09:26:15;9.60;;;6.40;;
1390;SDS011;690;51.454;7.194;2023-06-10T09:28:42;7.13;;;5.80;;
1390;SDS011;690;51.454;7.194;2023-06-10T09:31:10;6.80;;;6.00;;
1390;SDS011;690;51.454;7.194;2023-06-10T09:33:39;14.47;;;6.17;;
1390;SDS011;690;51.454;7.194;2023-06-10T09:36:06;7.70;;;5.90;;
1390;SDS011;690;51.454;7.194;2023-06-10T09:38:35;6.73;;;6.10;;
1390;SDS011;690;51.454;7.194;2023-06-10T09:41:03;8.53;;;6.27;;
1390;SDS011;690;51.454;7.194;2023-06-10T09:43:39;9.20;;;6.70;;
1390;SDS011;690;51.454;7.194;2023-06-10T09:46:13;7.07;;;6.47;;
1390;SDS011;690;51.454;7.194;2023-06-10T09:48:41;8.77;;;6.03;;
1390;SDS011;690;51.454;7.194;2023-06-10T09:51:09;10.10;;;6.80;;
1390;SDS011;690;51.454;7.194;2023-06-10T09:53:38;7.63;;;6.43;;
1390;SDS011;690;51.454;7.194;2023-06-10T09:56:05;9.90;;;6.10;;
1390;SDS011;690;51.454;7.194;2023-06-10T09:58:36;16.53;;;6.93;;
1390;SDS011;690;51.454;7.194;2023-06-10T10:01:04;7.37;;;6.10;;
1390;SDS011;690;51.454;7.194;2023-06-10T10:03:31;7.53;;;6.67;;
1390;SDS011;690;51.454;7.194;2023-06-10T10:05:59;8.67;;;7.63;;
1390;SDS011;690;51.454;7.194;2023-06-10T10:08:27;7.47;;;6.87;;
1390;SDS011;690;51.454;7.194;2023-06-10T10:10:55;9.00;;;7.43;;
1390;SDS011;690;51.454;7.194;2023-06-10T10:13:23;6.87;;;6.17;;
1390;SDS011;690;51.454;7.194;2023-06-10T10:15:53;8.80;;;6.87;;
1390;SDS011;690;51.454;7.194;2023-06-10T10:18:22;7.40;;;6.70;;
1390;SDS011;690;51.454;7.194;2023-06-10T10:20:53;8.20;;;7.17;;
1390;SDS011;690;51.454;7.194;2023-06-10T10:23:21;8.90;;;7.03;;
1390;SDS011;690;51.454;7.194;2023-06-10T10:25:57;8.07;;;7.30;;
1390;SDS011;690;51.454;7.194;2023-06-10T10:28:34;9.67;;;8.67;;
1390;SDS011;690;51.454;7.194;2023-06-10T10:31:07;7.60;;;6.80;;
1390;SDS011;690;51.454;7.194;2023-06-10T10:33:40;8.17;;;6.70;;
1390;SDS011;690;51.454;7.194;2023-06-10T10:36:14;8.10;;;7.40;;
1390;SDS011;690;51.454;7.194;2023-06-10T10:38:43;8.67;;;7.77;;
1390;SDS011;690;51.454;7.194;2023-06-10T10:41:15;9.97;;;7.87;;
1390;SDS011;690;51.454;7.194;2023-06-10T10:43:42;7.70;;;7.00;;
1390;SDS011;690;51.454;7.194;2023-06-10T10:46:11;8.43;;;7.53;;
1390;SDS011;690;51.454;7.194;2023-06-10T10:48:40;8.47;;;7.67;;
1390;SDS011;690;51.454;7.194;2023-06-10T10:51:07;7.47;;;6.77;;
1390;SDS011;690;51.454;7.194;2023-06-10T10:53:36;10.27;;;7.83;;
1390;SDS011;690;51.454;7.194;2023-06-10T10:56:07;9.37;;;7.50;;
1390;SDS011;690;51.454;7.194;2023-06-10T10:58:40;8.77;;;7.50;;
1390;SDS011;690;51.454;7.194;2023-06-10T11:01:11;8.60;;;7.73;;
1390;SDS011;690;51.454;7.194;2023-06-10T11:03:44;8.93;;;8.07;;
1390;SDS011;690;51.454;7.194;2023-06-10T11:06:12;8.57;;;7.73;;
1390;SDS011;690;51.454;7.194;2023-06-10T11:08:47;9.20;;;8.40;;
1390;SDS011;690;51.454;7.194;2023-06-10T11:11:19;8.93;;;8.13;;
1390;SDS011;690;51.454;7.194;2023-06-10T11:14:06;8.80;;;8.00;;
1390;SDS011;690;51.454;7.194;2023-06-10T11:16:38;9.67;;;8.60;;
1390;SDS011;690;51.454;7.194;2023-06-10T11:19:07;9.37;;;7.67;;
1390;SDS011;690;51.454;7.194;2023-06-10T11:24:26;8.60;;;7.90;;
1390;SDS011;690;51.454;7.194;2023-06-10T11:26:53;10.67;;;8.80;;
1390;SDS011;690;51.454;7.194;2023-06-10T11:29:21;9.70;;;8.90;;
1390;SDS011;690;51.454;7.194;2023-06-10T11:31:49;9.60;;;8.57;;
1390;SDS011;690;51.454;7.194;2023-06-10T11:34:21;8.50;;;7.80;;
1390;SDS011;690;51.454;7.194;2023-06-10T11:36:50;9.73;;;8.87;;
1390;SDS011;690;51.454;7.194;2023-06-10T11:39:19;10.13;;;8.30;;
1390;SDS011;690;51.454;7.194;2023-06-10T11:41:49;9.43;;;8.63;;
1390;SDS011;690;51.454;7.194;2023-06-10T11:44:18;9.43;;;8.53;;
1390;SDS011;690;51.454;7.194;2023-06-10T11:46:47;8.70;;;7.97;;
1390;SDS011;690;51.454;7.194;2023-06-10T11:52:38;10.50;;;9.53;;
1390;SDS011;690;51.454;7.194;2023-06-10T11:55:07;8.30;;;7.50;;
1390;SDS011;690;51.454;7.194;2023-06-10T11:57:34;9.50;;;8.47;;
1390;SDS011;690;51.454;7.194;2023-06-10T12:00:03;9.10;;;8.13;;
1390;SDS011;690;51.454;7.194;2023-06-10T12:02:31;9.57;;;8.67;;
1390;SDS011;690;51.454;7.194;2023-06-10T12:05:09;9.70;;;8.90;;
1390;SDS011;690;51.454;7.194;2023-06-10T12:07:38;9.27;;;8.43;;
1390;SDS011;690;51.454;7.194;2023-06-10T12:10:05;9.33;;;8.43;;
1390;SDS011;690;51.454;7.194;2023-06-10T12:12:34;8.53;;;7.87;;
1390;SDS011;690;51.454;7.194;2023-06-10T12:15:01;10.20;;;8.80;;
1390;SDS011;690;51.454;7.194;2023-06-10T12:17:37;9.17;;;8.37;;
1390;SDS011;690;51.454;7.194;2023-06-10T12:20:05;12.50;;;8.47;;
1390;SDS011;690;51.454;7.194;2023-06-10T12:22:38;9.50;;;8.60;;
1390;SDS011;690;51.454;7.194;2023-06-10T12:25:06;9.20;;;8.43;;
1390;SDS011;690;51.454;7.194;2023-06-10T12:27:34;9.90;;;9.00;;
1390;SDS011;690;51.454;7.194;2023-06-10T12:30:02;10.33;;;9.40;;
1390;SDS011;690;51.454;7.194;2023-06-10T12:32:37;9.93;;;8.80;;
1390;SDS011;690;51.454;7.194;2023-06-10T12:35:06;12.20;;;8.27;;
1390;SDS011;690;51.454;7.194;2023-06-10T12:37:34;12.30;;;9.53;;
1390;SDS011;690;51.454;7.194;2023-06-10T12:40:04;10.07;;;8.73;;
1390;SDS011;690;51.454;7.194;2023-06-10T12:42:33;9.73;;;8.83;;
1390;SDS011;690;51.454;7.194;2023-06-10T12:45:02;9.27;;;8.50;;
1390;SDS011;690;51.454;7.194;2023-06-10T12:47:32;9.27;;;8.40;;
1390;SDS011;690;51.454;7.194;2023-06-10T12:50:03;9.67;;;8.77;;
1390;SDS011;690;51.454;7.194;2023-06-10T12:52:30;10.90;;;9.90;;
1390;SDS011;690;51.454;7.194;2023-06-10T12:54:58;10.10;;;9.30;;
1390;SDS011;690;51.454;7.194;2023-06-10T12:57:27;8.83;;;8.03;;
1390;SDS011;690;51.454;7.194;2023-06-10T12:59:54;10.20;;;9.20;;
1390;SDS011;690;51.454;7.194;2023-06-10T13:02:28;9.10;;;8.30;;
1390;SDS011;690;51.454;7.194;2023-06-10T13:04:55;9.57;;;8.70;;
1390;SDS011;690;51.454;7.194;2023-06-10T13:07:21;9.80;;;9.10;;
1390;SDS011;690;51.454;7.194;2023-06-10T13:09:49;9.80;;;8.97;;
1390;SDS011;690;51.454;7.194;2023-06-10T13:12:16;9.20;;;8.50;;
1390;SDS011;690;51.454;7.194;2023-06-10T13:14:45;9.27;;;8.50;;
1390;SDS011;690;51.454;7.194;2023-06-10T13:17:12;10.77;;;9.83;;
1390;SDS011;690;51.454;7.194;2023-06-10T13:19:39;9.97;;;9.17;;
1390;SDS011;690;51.454;7.194;2023-06-10T13:22:06;10.43;;;9.53;;
1390;SDS011;690;51.454;7.194;2023-06-10T13:24:33;9.80;;;9.00;;
1390;SDS011;690;51.454;7.194;2023-06-10T13:27:00;9.97;;;9.17;;
1390;SDS011;690;51.454;7.194;2023-06-10T13:29:27;10.23;;;9.37;;
1390;SDS011;690;51.454;7.194;2023-06-10T13:31:55;9.03;;;8.23;;
1390;SDS011;690;51.454;7.194;2023-06-10T13:34:22;10.00;;;8.97;;
1390;SDS011;690;51.454;7.194;2023-06-10T13:36:49;9.83;;;8.83;;
1390;SDS011;690;51.454;7.194;2023-06-10T13:39:15;9.87;;;8.87;;
1390;SDS011;690;51.454;7.194;2023-06-10T13:41:43;9.57;;;8.73;;
1390;SDS011;690;51.454;7.194;2023-06-10T13:44:10;9.50;;;8.73;;
1390;SDS011;690;51.454;7.194;2023-06-10T13:46:37;10.13;;;9.30;;
1390;SDS011;690;51.454;7.194;2023-06-10T13:49:06;9.53;;;8.83;;
1390;SDS011;690;51.454;7.194;2023-06-10T13:51:33;9.77;;;8.80;;
1390;SDS011;690;51.454;7.194;2023-06-10T13:54:00;9.73;;;8.87;;
1390;SDS011;690;51.454;7.194;2023-06-10T13:56:27;10.00;;;9.10;;
1390;SDS011;690;51.454;7.194;2023-06-10T13:58:54;11.37;;;8.50;;
1390;SDS011;690;51.454;7.194;2023-06-10T14:01:21;9.70;;;8.80;;
1390;SDS011;690;51.454;7.194;2023-06-10T14:03:48;11.67;;;9.07;;
1390;SDS011;690;51.454;7.194;2023-06-10T14:06:16;9.10;;;8.20;;
1390;SDS011;690;51.454;7.194;2023-06-10T14:08:44;9.30;;;8.50;;
1390;SDS011;690;51.454;7.194;2023-06-10T14:11:11;8.90;;;8.20;;
1390;SDS011;690;51.454;7.194;2023-06-10T14:13:38;10.20;;;8.90;;
1390;SDS011;690;51.454;7.194;2023-06-10T14:16:04;9.67;;;8.70;;
1390;SDS011;690;51.454;7.194;2023-06-10T14:18:31;10.03;;;9.07;;
1390;SDS011;690;51.454;7.194;2023-06-10T14:20:58;8.93;;;8.20;;
1390;SDS011;690;51.454;7.194;2023-06-10T14:23:27;9.63;;;8.80;;
1390;SDS011;690;51.454;7.194;2023-06-10T14:25:53;9.23;;;8.43;;
1390;SDS011;690;51.454;7.194;2023-06-10T14:28:20;8.70;;;8.10;;
1390;SDS011;690;51.454;7.194;2023-06-10T14:30:49;9.13;;;8.23;;
1390;SDS011;690;51.454;7.194;2023-06-10T14:33:16;9.60;;;8.70;;
1390;SDS011;690;51.454;7.194;2023-06-10T14:35:43;9.23;;;8.53;;
1390;SDS011;690;51.454;7.194;2023-06-10T14:38:10;9.37;;;8.67;;
1390;SDS011;690;51.454;7.194;2023-06-10T14:40:38;9.27;;;8.37;;
1390;SDS011;690;51.454;7.194;2023-06-10T14:43:05;8.57;;;7.50;;
1390;SDS011;690;51.454;7.194;2023-06-10T14:45:35;9.40;;;8.10;;
1390;SDS011;690;51.454;7.194;2023-06-10T14:48:02;13.57;;;9.47;;
1390;SDS011;690;51.454;7.194;2023-06-10T14:50:32;9.00;;;8.17;;
1390;SDS011;690;51.454;7.194;2023-06-10T14:53:00;9.27;;;8.33;;
1390;SDS011;690;51.454;7.194;2023-06-10T14:55:27;8.37;;;7.67;;
1390;SDS011;690;51.454;7.194;2023-06-10T14:57:56;9.87;;;9.07;;
1390;SDS011;690;51.454;7.194;2023-06-10T15:00:23;9.03;;;8.03;;
1390;SDS011;690;51.454;7.194;2023-06-10T15:02:50;9.03;;;8.13;;
1390;SDS011;690;51.454;7.194;2023-06-10T15:05:18;10.67;;;8.27;;
1390;SDS011;690;51.454;7.194;2023-06-10T15:07:45;9.43;;;8.53;;
1390;SDS011;690;51.454;7.194;2023-06-10T15:10:12;8.57;;;7.87;;
1390;SDS011;690;51.454;7.194;2023-06-10T15:12:40;9.60;;;8.80;;
1390;SDS011;690;51.454;7.194;2023-06-10T15:15:09;9.93;;;9.07;;
1390;SDS011;690;51.454;7.194;2023-06-10T15:17:36;9.80;;;8.67;;
1390;SDS011;690;51.454;7.194;2023-06-10T15:20:03;9.47;;;8.47;;
1390;SDS011;690;51.454;7.194;2023-06-10T15:22:31;8.20;;;7.50;;
1390;SDS011;690;51.454;7.194;2023-06-10T15:24:58;10.40;;;8.33;;
1390;SDS011;690;51.454;7.194;2023-06-10T15:27:25;9.53;;;8.50;;
1390;SDS011;690;51.454;7.194;2023-06-10T15:29:52;8.17;;;7.47;;